createdAt,value
2022-07-25T00:00:37.930Z,20.56
2022-07-25T00:03:06.300Z,20.48
2022-07-25T00:05:38.053Z,20.43
2022-07-25T00:08:06.402Z,20.53
2022-07-25T00:10:34.658Z,20.58
2022-07-25T00:13:02.243Z,20.77
2022-07-25T00:15:30.880Z,21.17
2022-07-25T00:17:58.582Z,21.23
2022-07-25T00:20:26.738Z,21.07
2022-07-25T00:22:54.227Z,21.07
2022-07-25T00:25:21.254Z,21.30
2022-07-25T00:27:47.947Z,21.58
2022-07-25T00:30:15.523Z,21.16
2022-07-25T00:32:44.308Z,21.20
2022-07-25T00:35:12.348Z,21.12
2022-07-25T00:37:39.373Z,21.01
2022-07-25T00:40:07.633Z,20.78
2022-07-25T00:42:35.366Z,20.56
2022-07-25T00:45:02.791Z,20.55
2022-07-25T00:47:30.842Z,20.41
2022-07-25T00:49:58.626Z,20.35
2022-07-25T00:52:25.862Z,20.31
2022-07-25T00:54:53.557Z,20.37
2022-07-25T00:57:21.847Z,20.35
2022-07-25T00:59:50.156Z,20.51
2022-07-25T01:02:18.272Z,20.77
2022-07-25T01:04:45.659Z,20.96
2022-07-25T01:07:13.346Z,20.85
2022-07-25T01:09:43.578Z,20.58
2022-07-25T01:12:11.719Z,20.38
2022-07-25T01:14:39.203Z,20.25
2022-07-25T01:17:07.247Z,20.19
2022-07-25T01:19:35.157Z,20.50
2022-07-25T01:22:02.211Z,20.39
2022-07-25T01:24:30.475Z,20.58
2022-07-25T01:26:58.618Z,20.64
2022-07-25T01:29:26.768Z,20.50
2022-07-25T01:31:54.466Z,20.39
2022-07-25T01:34:22.206Z,20.35
2022-07-25T01:36:50.176Z,20.79
2022-07-25T01:39:17.410Z,21.01
2022-07-25T01:41:45.841Z,20.84
2022-07-25T01:44:14.048Z,20.90
2022-07-25T01:46:41.332Z,21.24
2022-07-25T01:49:09.727Z,20.95
2022-07-25T01:51:36.913Z,20.85
2022-07-25T01:54:05.872Z,21.18
2022-07-25T01:56:38.568Z,21.19
2022-07-25T01:59:11.274Z,21.06
2022-07-25T02:01:39.393Z,21.23
2022-07-25T02:04:07.370Z,21.04
2022-07-25T02:06:35.490Z,20.84
2022-07-25T02:09:04.406Z,20.89
2022-07-25T02:11:32.196Z,21.02
2022-07-25T02:14:00.525Z,20.96
2022-07-25T02:16:28.909Z,21.05
2022-07-25T02:18:59.486Z,20.89
2022-07-25T02:21:27.703Z,20.78
2022-07-25T02:23:55.417Z,20.71
2022-07-25T02:26:23.916Z,20.66
2022-07-25T02:28:51.548Z,20.46
2022-07-25T02:31:20.332Z,20.31
2022-07-25T02:34:38.244Z,20.31
2022-07-25T02:41:44.678Z,20.48
2022-07-25T02:51:47.530Z,20.48
2022-07-25T02:54:55.935Z,20.56
2022-07-25T02:57:43.043Z,20.54
2022-07-25T03:04:24.704Z,20.63
2022-07-25T03:15:29.840Z,20.83
2022-07-25T03:22:26.099Z,20.74
2022-07-25T03:28:23.995Z,20.47
2022-07-25T03:31:10.873Z,20.64
2022-07-25T03:34:16.181Z,20.69
2022-07-25T03:50:23.837Z,20.89
2022-07-25T03:53:27.803Z,20.69
2022-07-25T03:56:33.083Z,20.83
2022-07-25T04:12:08.270Z,21.29
2022-07-25T04:14:35.973Z,21.24
2022-07-25T04:17:03.403Z,21.47
2022-07-25T04:19:32.172Z,21.55
2022-07-25T04:22:00.126Z,21.94
2022-07-25T04:29:20.121Z,23.14
2022-07-25T04:32:41.166Z,23.90
2022-07-25T04:35:59.042Z,24.34
2022-07-25T04:38:41.460Z,24.60
2022-07-25T04:47:46.169Z,25.87
2022-07-25T04:53:43.264Z,25.94
2022-07-25T04:56:10.102Z,26.26
2022-07-25T04:58:37.110Z,26.85
2022-07-25T05:01:04.580Z,27.17
2022-07-25T05:03:32.421Z,26.99
2022-07-25T05:06:00.310Z,27.53
2022-07-25T05:08:28.427Z,27.90
2022-07-25T05:10:55.809Z,27.91
2022-07-25T05:13:23.601Z,28.23
2022-07-25T05:15:51.081Z,28.18
2022-07-25T05:18:19.197Z,28.57
2022-07-25T05:20:46.487Z,28.31
2022-07-25T05:23:32.130Z,28.91
2022-07-25T05:26:22.174Z,29.55
2022-07-25T05:29:22.027Z,28.89
2022-07-25T05:32:19.112Z,29.22
2022-07-25T05:34:51.520Z,29.34
2022-07-25T05:37:44.650Z,29.62
2022-07-25T05:47:50.035Z,30.11
2022-07-25T05:50:57.352Z,30.91
2022-07-25T05:54:07.595Z,31.44
2022-07-25T05:57:01.736Z,31.02
2022-07-25T05:59:54.210Z,30.81
2022-07-25T06:02:48.140Z,30.65
2022-07-25T06:05:58.248Z,30.13
2022-07-25T06:08:31.230Z,30.69
2022-07-25T06:14:32.258Z,30.81
2022-07-25T06:16:58.965Z,30.39
2022-07-25T06:19:26.792Z,30.64
2022-07-25T06:22:08.104Z,30.54
2022-07-25T06:25:08.736Z,30.72
2022-07-25T06:28:29.952Z,30.86
2022-07-25T06:31:49.458Z,30.58
2022-07-25T06:34:19.694Z,31.10
2022-07-25T06:37:07.277Z,30.55
2022-07-25T06:40:16.257Z,30.01
2022-07-25T06:43:34.956Z,30.00
2022-07-25T06:54:08.556Z,28.32
2022-07-25T06:56:55.533Z,28.52
2022-07-25T06:59:35.492Z,28.17
2022-07-25T07:02:44.724Z,27.90
2022-07-25T07:17:01.235Z,28.44
2022-07-25T07:19:50.682Z,28.21
2022-07-25T07:23:16.891Z,28.14
2022-07-25T07:26:59.078Z,28.34
2022-07-25T07:32:49.742Z,28.67
2022-07-25T07:43:29.029Z,29.59
2022-07-25T07:46:17.896Z,29.61
2022-07-25T07:49:27.112Z,29.48
2022-07-25T07:52:24.058Z,29.29
2022-07-25T07:58:27.953Z,28.97
2022-07-25T08:01:23.182Z,29.49
2022-07-25T08:04:15.659Z,29.58
2022-07-25T08:06:43.206Z,29.80
2022-07-25T08:09:10.504Z,30.21
2022-07-25T08:11:38.106Z,30.25
2022-07-25T08:14:07.404Z,29.99
2022-07-25T08:16:36.015Z,29.68
2022-07-25T08:19:03.722Z,29.93
2022-07-25T08:21:32.495Z,29.95
2022-07-25T08:24:00.341Z,30.24
2022-07-25T08:26:31.929Z,30.07
2022-07-25T08:29:17.518Z,30.05
2022-07-25T08:31:46.484Z,30.20
2022-07-25T08:34:14.102Z,30.03
2022-07-25T08:36:41.027Z,30.47
2022-07-25T08:39:09.043Z,29.94
2022-07-25T08:41:36.693Z,30.35
2022-07-25T08:44:08.364Z,30.54
2022-07-25T08:46:37.508Z,30.26
2022-07-25T08:49:05.487Z,29.99
2022-07-25T08:51:34.301Z,30.27
2022-07-25T08:54:01.297Z,30.53
2022-07-25T08:56:29.225Z,30.80
2022-07-25T08:58:59.982Z,30.91
2022-07-25T09:01:31.655Z,30.74
2022-07-25T09:04:03.136Z,30.45
2022-07-25T09:06:30.609Z,31.01
2022-07-25T09:09:00.216Z,30.65
2022-07-25T09:11:35.423Z,31.03
2022-07-25T09:14:09.205Z,31.11
2022-07-25T09:16:41.065Z,30.85
2022-07-25T09:19:11.254Z,31.27
2022-07-25T09:21:40.082Z,31.25
2022-07-25T09:24:16.474Z,31.80
2022-07-25T09:26:49.571Z,32.11
2022-07-25T09:29:25.356Z,32.14
2022-07-25T09:31:55.351Z,31.53
2022-07-25T09:34:42.347Z,31.77
2022-07-25T09:37:12.579Z,31.92
2022-07-25T09:39:48.330Z,31.80
2022-07-25T09:42:17.605Z,31.42
2022-07-25T09:45:00.195Z,31.52
2022-07-25T09:48:00.911Z,31.36
2022-07-25T09:50:45.797Z,31.53
2022-07-25T09:56:49.206Z,32.04
2022-07-25T09:59:41.018Z,31.60
2022-07-25T10:02:51.986Z,31.79
2022-07-25T10:06:06.894Z,31.61
2022-07-25T10:09:00.678Z,32.10
2022-07-25T10:12:06.355Z,31.91
2022-07-25T10:15:48.880Z,30.91
2022-07-25T10:18:29.265Z,31.34
2022-07-25T10:21:39.155Z,31.23
2022-07-25T10:24:25.582Z,31.55
2022-07-25T10:27:30.005Z,31.22
2022-07-25T10:30:31.043Z,30.66
2022-07-25T10:33:50.779Z,30.49
2022-07-25T10:37:05.828Z,30.69
2022-07-25T10:40:00.165Z,30.34
2022-07-25T10:43:06.261Z,30.77
2022-07-25T10:46:31.701Z,30.60
2022-07-25T10:49:35.232Z,30.95
2022-07-25T10:56:04.897Z,31.40
2022-07-25T11:01:51.559Z,31.34
2022-07-25T11:04:43.096Z,30.89
2022-07-25T11:08:25.046Z,30.24
2022-07-25T11:11:19.963Z,29.93
2022-07-25T11:16:46.787Z,30.19
2022-07-25T11:22:44.847Z,30.63
2022-07-25T11:28:50.700Z,30.52
2022-07-25T11:31:44.112Z,30.02
2022-07-25T11:34:27.536Z,30.14
2022-07-25T11:37:48.721Z,30.50
2022-07-25T11:41:18.281Z,30.75
2022-07-25T11:46:56.825Z,30.41
2022-07-25T11:50:13.189Z,30.29
2022-07-25T11:52:45.884Z,30.58
2022-07-25T12:05:58.595Z,30.60
2022-07-25T12:08:36.299Z,30.65
2022-07-25T12:11:40.440Z,30.36
2022-07-25T12:14:23.268Z,30.08
2022-07-25T12:32:45.602Z,29.71
2022-07-25T12:35:23.673Z,30.46
2022-07-25T12:37:53.953Z,30.33
2022-07-25T12:40:36.125Z,29.53
2022-07-25T12:46:30.503Z,30.38
2022-07-25T12:49:28.149Z,30.49
2022-07-25T12:52:12.805Z,30.36
2022-07-25T12:54:57.282Z,30.46
2022-07-25T12:57:53.604Z,30.12
2022-07-25T13:00:24.563Z,30.45
2022-07-25T13:06:50.387Z,30.53
2022-07-25T13:09:37.265Z,31.04
2022-07-25T13:15:28.237Z,30.22
2022-07-25T13:17:58.246Z,30.69
2022-07-25T13:21:24.058Z,30.71
2022-07-25T13:33:21.600Z,30.48
2022-07-25T13:35:57.707Z,31.05
2022-07-25T13:38:57.418Z,30.60
2022-07-25T13:42:12.217Z,30.88
2022-07-25T13:51:02.358Z,30.93
2022-07-25T13:53:44.808Z,31.39
2022-07-25T14:00:45.174Z,31.14
2022-07-25T14:08:03.834Z,30.83
2022-07-25T14:10:53.487Z,30.45
2022-07-25T14:13:50.219Z,30.38
2022-07-25T14:19:05.100Z,30.85
2022-07-25T14:29:15.815Z,30.80
2022-07-25T14:31:54.901Z,30.94
2022-07-25T14:34:42.353Z,30.67
2022-07-25T14:37:15.045Z,30.50
2022-07-25T14:40:20.540Z,30.12
2022-07-25T14:43:06.309Z,29.79
2022-07-25T14:46:04.886Z,29.81
2022-07-25T14:48:44.035Z,29.49
2022-07-25T14:58:25.351Z,29.62
2022-07-25T15:00:52.191Z,29.88
2022-07-25T15:03:19.430Z,29.94
2022-07-25T15:05:46.959Z,29.56
2022-07-25T15:08:14.563Z,29.71
2022-07-25T15:10:42.012Z,29.65
2022-07-25T15:13:30.468Z,29.24
2022-07-25T15:15:59.176Z,29.40
2022-07-25T15:18:26.170Z,28.97
2022-07-25T15:20:53.644Z,28.79
2022-07-25T15:23:21.143Z,28.45
2022-07-25T15:26:05.023Z,28.11
2022-07-25T15:28:37.974Z,27.96
2022-07-25T15:31:07.623Z,28.00
2022-07-25T15:33:35.118Z,28.22
2022-07-25T15:36:02.535Z,28.17
2022-07-25T15:38:31.354Z,28.53
2022-07-25T15:40:58.444Z,28.04
2022-07-25T15:43:26.050Z,27.78
2022-07-25T15:45:53.543Z,27.74
2022-07-25T15:48:21.447Z,27.82
2022-07-25T15:50:51.914Z,27.41
2022-07-25T15:53:18.910Z,27.29
2022-07-25T15:55:46.290Z,27.05
2022-07-25T15:58:14.632Z,27.27
2022-07-25T16:00:42.385Z,27.32
2022-07-25T16:03:10.238Z,27.37
2022-07-25T16:05:38.630Z,27.21
2022-07-25T16:08:08.743Z,27.05
2022-07-25T16:10:37.233Z,27.06
2022-07-25T16:13:04.896Z,26.79
2022-07-25T16:15:32.387Z,26.95
2022-07-25T16:18:02.527Z,26.86
2022-07-25T16:20:32.434Z,26.74
2022-07-25T16:23:01.016Z,27.06
2022-07-25T16:25:29.121Z,26.78
2022-07-25T16:27:56.810Z,26.45
2022-07-25T16:30:24.182Z,26.15
2022-07-25T16:32:52.194Z,25.89
2022-07-25T16:35:20.486Z,25.71
2022-07-25T16:37:48.252Z,25.67
2022-07-25T16:40:15.445Z,25.60
2022-07-25T16:42:43.274Z,25.82
2022-07-25T16:45:11.337Z,26.19
2022-07-25T16:47:41.460Z,26.30
2022-07-25T16:50:09.036Z,26.41
2022-07-25T16:52:36.387Z,25.79
2022-07-25T16:55:03.917Z,25.61
2022-07-25T16:57:31.415Z,25.23
2022-07-25T16:59:58.217Z,25.13
2022-07-25T17:02:29.478Z,24.99
2022-07-25T17:04:57.016Z,24.82
2022-07-25T17:07:24.812Z,24.86
2022-07-25T17:09:52.827Z,24.59
2022-07-25T17:12:20.543Z,24.58
2022-07-25T17:14:47.433Z,24.33
2022-07-25T17:17:15.749Z,24.20
2022-07-25T17:19:43.317Z,24.12
2022-07-25T17:22:12.201Z,24.15
2022-07-25T17:24:40.147Z,24.28
2022-07-25T17:27:08.870Z,24.00
2022-07-25T17:29:36.585Z,23.97
2022-07-25T17:32:06.057Z,23.91
2022-07-25T17:34:33.299Z,23.77
2022-07-25T17:37:03.304Z,23.78
2022-07-25T17:39:30.913Z,23.71
2022-07-25T17:41:58.658Z,23.64
2022-07-25T17:44:26.250Z,23.79
2022-07-25T17:46:54.246Z,23.75
2022-07-25T17:49:22.143Z,23.70
2022-07-25T17:51:49.449Z,23.68
2022-07-25T17:54:17.051Z,23.73
2022-07-25T17:56:45.565Z,23.65
2022-07-25T17:59:13.189Z,23.55
2022-07-25T18:01:40.355Z,23.99
2022-07-25T18:04:08.148Z,24.27
2022-07-25T18:06:35.326Z,24.11
2022-07-25T18:09:02.228Z,23.75
2022-07-25T18:11:30.243Z,23.78
2022-07-25T18:14:00.796Z,23.60
2022-07-25T18:16:28.891Z,23.25
2022-07-25T18:18:56.814Z,23.25
2022-07-25T18:21:25.261Z,23.03
2022-07-25T18:23:52.406Z,22.89
2022-07-25T18:26:19.309Z,22.74
2022-07-25T18:28:46.796Z,22.73
2022-07-25T18:31:14.281Z,22.65
2022-07-25T18:33:42.879Z,22.56
2022-07-25T18:36:10.435Z,22.59
2022-07-25T18:38:37.644Z,22.47
2022-07-25T18:41:28.622Z,22.28
2022-07-25T18:43:53.158Z,22.31
2022-07-25T18:46:20.611Z,22.28
2022-07-25T18:48:47.981Z,22.12
2022-07-25T18:51:15.368Z,22.02
2022-07-25T18:53:47.386Z,21.93
2022-07-25T18:56:16.389Z,21.87
2022-07-25T18:58:45.203Z,21.81
2022-07-25T19:01:12.587Z,21.63
2022-07-25T19:04:08.667Z,21.55
2022-07-25T19:06:38.918Z,21.56
2022-07-25T19:09:36.848Z,21.51
2022-07-25T19:12:32.819Z,21.53
2022-07-25T19:15:17.140Z,21.43
2022-07-25T19:19:20.423Z,21.39
2022-07-25T19:22:32.979Z,21.31
2022-07-25T19:25:16.980Z,21.17
2022-07-25T19:28:35.838Z,21.10
2022-07-25T19:31:25.019Z,21.07
2022-07-25T19:34:13.497Z,21.03
2022-07-25T19:37:38.860Z,20.92
2022-07-25T19:40:09.603Z,20.91
2022-07-25T19:43:13.553Z,20.76
2022-07-25T19:45:56.533Z,20.68
2022-07-25T19:48:28.438Z,20.65
2022-07-25T19:51:03.947Z,20.64
2022-07-25T19:54:03.547Z,20.49
2022-07-25T19:56:54.523Z,20.44
2022-07-25T19:59:35.691Z,20.46
2022-07-25T20:02:16.747Z,20.38
2022-07-25T20:04:52.144Z,20.44
2022-07-25T20:07:31.398Z,20.38
2022-07-25T20:10:11.972Z,20.44
2022-07-25T20:13:01.605Z,20.48
2022-07-25T20:16:05.310Z,20.50
2022-07-25T20:21:52.661Z,20.50
2022-07-25T20:24:32.553Z,20.45
2022-07-25T20:27:04.437Z,20.32
2022-07-25T20:35:54.906Z,20.41
2022-07-25T20:38:57.027Z,20.38
2022-07-25T20:41:46.121Z,20.24
2022-07-25T20:44:31.836Z,20.19
2022-07-25T20:47:30.267Z,20.09
2022-07-25T20:50:43.516Z,20.03
2022-07-25T20:54:19.573Z,19.88
2022-07-25T20:58:12.405Z,19.89
2022-07-25T21:01:03.368Z,19.86
2022-07-25T21:09:39.466Z,19.99
2022-07-25T21:12:32.731Z,19.97
2022-07-25T21:15:09.810Z,19.74
2022-07-25T21:17:47.878Z,19.61
2022-07-25T21:20:24.139Z,19.65
2022-07-25T21:26:47.085Z,19.44
2022-07-25T21:32:09.941Z,19.42
2022-07-25T21:41:20.677Z,19.14
2022-07-25T21:43:53.502Z,18.94
2022-07-25T21:46:39.930Z,18.87
2022-07-25T21:50:01.107Z,18.96
2022-07-25T21:52:44.635Z,18.91
2022-07-25T21:55:26.154Z,18.86
2022-07-25T21:58:28.618Z,18.70
2022-07-25T22:00:54.805Z,18.72
2022-07-25T22:03:22.963Z,18.65
2022-07-25T22:05:49.926Z,18.63
2022-07-25T22:08:17.825Z,18.60
2022-07-25T22:10:45.501Z,18.68
2022-07-25T22:13:14.720Z,18.60
2022-07-25T22:15:44.905Z,18.58
